Time;durP1;ratioP1;P1;durP2;ratioP2;P2;SDS_P1;SDS_P2;PMS_P1;PMS_P2;Temp;Humidity;BMP_temperature;BMP_pressure;BME280_temperature;BME280_humidity;BME280_pressure;Samples;Min_cycle;Max_cycle;Signal;HPM_P1;HPM_P2
2022/08/28 00:00:19;;;;;;;;;;;;;;;23.36;43.32;100693.03;4972855;28;6803;-74
2022/08/28 00:02:46;;;;;;;;;;;;;;;23.36;43.33;100700.03;4972653;28;6800;-74
2022/08/28 00:05:14;;;;;;;;;;;;;;;23.33;43.34;100694.81;4969802;28;6992;-74
2022/08/28 00:07:40;;;;;;;;;;;;;;;23.30;43.24;100695.66;4962043;28;7248;-74
2022/08/28 00:10:09;;;;;;;;;;;;;;;23.27;42.91;100706.06;4968587;28;6800;-75
2022/08/28 00:12:37;;;;;;;;;;;;;;;23.23;43.13;100704.34;4978723;28;6878;-74
2022/08/28 00:15:15;;;;;;;;;;;;;;;23.20;42.70;100713.03;4975022;28;6887;-75
2022/08/28 00:17:41;;;;;;;;;;;;;;;23.15;43.36;100713.03;4975713;28;6990;-74
2022/08/28 00:20:10;;;;;;;;;;;;;;;23.11;42.91;100716.53;4971954;28;7772;-74
2022/08/28 00:22:38;;;;;;;;;;;;;;;23.07;43.15;100712.16;4959524;28;7269;-74
2022/08/28 00:25:10;;;;;;;;;;;;;;;23.04;43.19;100717.38;4951489;28;7182;-74
2022/08/28 00:27:51;;;;;;;;;;;;;;;23.00;42.78;100719.13;4974477;28;7297;-74
2022/08/28 00:30:47;;;;;;;;;;;;;;;22.95;42.75;100722.59;4970900;28;7449;-74
2022/08/28 00:33:29;;;;;;;;;;;;;;;22.91;43.26;100718.25;4957080;28;7154;-74
2022/08/28 00:35:56;;;;;;;;;;;;;;;22.88;43.12;100722.59;4971282;28;6804;-74
2022/08/28 00:38:25;;;;;;;;;;;;;;;22.86;43.18;100721.72;4952926;28;6879;-74
2022/08/28 00:40:56;;;;;;;;;;;;;;;22.85;42.92;100729.56;4965206;28;7361;-75
2022/08/28 00:43:44;;;;;;;;;;;;;;;22.82;43.08;100727.81;4960897;28;6812;-75
2022/08/28 00:46:22;;;;;;;;;;;;;;;22.79;43.10;100732.16;4972893;28;7471;-74
2022/08/28 00:48:49;;;;;;;;;;;;;;;22.75;43.33;100724.31;4978677;28;6780;-74
2022/08/28 00:54:05;;;;;;;;;;;;;;;22.70;43.33;100738.25;4978666;28;6797;-74
2022/08/28 00:56:31;;;;;;;;;;;;;;;22.70;43.31;100738.25;4972266;28;7162;-74
2022/08/28 00:59:06;;;;;;;;;;;;;;;22.67;43.51;100736.47;4979936;28;6935;-74
2022/08/28 01:01:31;;;;;;;;;;;;;;;22.65;43.27;100737.34;4979132;28;6800;-74
2022/08/28 01:03:57;;;;;;;;;;;;;;;22.64;43.57;100740.81;4972648;28;6796;-75
2022/08/28 01:06:23;;;;;;;;;;;;;;;22.63;43.32;100744.31;4977670;28;6768;-74
2022/08/28 01:08:52;;;;;;;;;;;;;;;22.59;43.67;100749.50;4980115;28;6953;-74
2022/08/28 01:11:19;;;;;;;;;;;;;;;22.58;43.33;100749.50;4974843;28;6835;-74
2022/08/28 01:13:47;;;;;;;;;;;;;;;22.56;43.58;100748.63;4980175;28;9719;-74
2022/08/28 01:16:16;;;;;;;;;;;;;;;22.53;43.84;100756.44;4977090;28;6856;-74
2022/08/28 01:18:45;;;;;;;;;;;;;;;22.50;43.40;100759.06;4943712;28;8555;-74
2022/08/28 01:21:28;;;;;;;;;;;;;;;22.45;43.57;100753.78;4973958;28;6983;-74
2022/08/28 01:24:10;;;;;;;;;;;;;;;22.42;43.87;100751.16;4942815;28;8782;-73
2022/08/28 01:26:37;;;;;;;;;;;;;;;22.37;43.87;100753.75;4976640;28;7023;-73
2022/08/28 01:29:03;;;;;;;;;;;;;;;22.34;43.61;100745.88;4976233;28;7262;-73
2022/08/28 01:31:30;;;;;;;;;;;;;;;22.31;43.87;100741.53;4974163;28;6784;-73
2022/08/28 01:34:00;;;;;;;;;;;;;;;22.28;43.69;100743.25;4975229;28;6792;-74
2022/08/28 01:36:28;;;;;;;;;;;;;;;22.25;43.76;100741.50;4975183;28;6807;-74
2022/08/28 01:39:21;;;;;;;;;;;;;;;22.23;43.86;100738.00;4958939;28;7161;-74
2022/08/28 01:41:51;;;;;;;;;;;;;;;22.20;43.80;100738.88;4957020;28;7034;-74
2022/08/28 01:44:23;;;;;;;;;;;;;;;22.18;43.89;100735.38;4974827;28;6870;-74
2022/08/28 01:46:54;;;;;;;;;;;;;;;22.15;43.93;100737.09;4972016;28;6918;-74
2022/08/28 01:49:21;;;;;;;;;;;;;;;22.14;44.06;100738.81;4970339;28;7072;-75
2022/08/28 01:51:46;;;;;;;;;;;;;;;22.13;44.07;100744.06;4973561;28;7194;-74
2022/08/28 01:54:13;;;;;;;;;;;;;;;22.10;44.11;100734.47;4973588;28;6776;-75
2022/08/28 01:56:43;;;;;;;;;;;;;;;22.08;44.38;100745.75;4976168;28;8725;-75
2022/08/28 01:59:10;;;;;;;;;;;;;;;22.04;44.09;100739.63;4960840;28;7158;-74
2022/08/28 02:01:36;;;;;;;;;;;;;;;22.01;44.14;100743.09;4959076;28;6965;-75
2022/08/28 02:04:03;;;;;;;;;;;;;;;21.99;44.38;100752.66;4968156;28;8399;-74
2022/08/28 02:06:31;;;;;;;;;;;;;;;21.96;44.44;100752.66;4957958;28;6788;-74
2022/08/28 02:08:58;;;;;;;;;;;;;;;21.92;44.52;100756.06;4976424;28;6804;-75
2022/08/28 02:11:25;;;;;;;;;;;;;;;21.88;44.64;100749.09;4977566;28;6820;-74
2022/08/28 02:13:53;;;;;;;;;;;;;;;21.82;44.51;100751.66;4975521;28;6855;-74
2022/08/28 02:16:19;;;;;;;;;;;;;;;21.77;44.15;100755.13;4980593;28;7239;-74
2022/08/28 02:18:45;;;;;;;;;;;;;;;21.74;44.75;100757.72;4957349;28;7272;-74
2022/08/28 02:21:11;;;;;;;;;;;;;;;21.70;44.90;100755.94;4970385;28;8595;-74
2022/08/28 02:23:41;;;;;;;;;;;;;;;21.63;44.72;100757.59;4977189;28;6796;-73
2022/08/28 02:26:08;;;;;;;;;;;;;;;21.57;45.12;100754.06;4973791;28;6799;-74
2022/08/28 02:28:35;;;;;;;;;;;;;;;21.51;45.13;100760.09;4974145;28;6795;-74
2022/08/28 02:31:01;;;;;;;;;;;;;;;21.46;45.30;100762.69;4976666;28;6828;-74
2022/08/28 02:33:26;;;;;;;;;;;;;;;21.39;45.07;100775.63;4960959;28;6954;-73
2022/08/28 02:35:52;;;;;;;;;;;;;;;21.34;45.14;100768.66;4971934;28;6783;-73
2022/08/28 02:38:18;;;;;;;;;;;;;;;21.28;45.14;100768.56;4974158;28;6951;-73
2022/08/28 02:40:43;;;;;;;;;;;;;;;21.26;45.75;100774.66;4975233;28;7246;-74
2022/08/28 02:43:09;;;;;;;;;;;;;;;21.19;45.64;100776.31;4957865;28;8451;-73
2022/08/28 02:45:36;;;;;;;;;;;;;;;21.15;45.80;100778.03;4976762;28;6788;-74
2022/08/28 02:48:03;;;;;;;;;;;;;;;21.08;45.85;100765.78;4975665;28;7421;-74
2022/08/28 02:50:29;;;;;;;;;;;;;;;21.05;45.78;100776.16;4978783;28;6950;-74
2022/08/28 02:52:56;;;;;;;;;;;;;;;21.01;45.96;100777.88;4971849;28;6927;-74
2022/08/28 02:55:23;;;;;;;;;;;;;;;20.98;46.18;100776.97;4969497;28;7184;-74
2022/08/28 02:57:50;;;;;;;;;;;;;;;20.93;46.25;100783.00;4977739;28;7291;-73
2022/08/28 03:00:23;;;;;;;;;;;;;;;20.90;46.08;100780.34;4973064;28;7200;-74
2022/08/28 03:02:52;;;;;;;;;;;;;;;20.86;46.26;100782.91;4961609;28;7245;-74
2022/08/28 03:05:22;;;;;;;;;;;;;;;20.82;46.15;100784.59;4964247;28;6966;-75
2022/08/28 03:07:52;;;;;;;;;;;;;;;20.80;46.02;100787.16;4979915;28;6808;-75
2022/08/28 03:10:19;;;;;;;;;;;;;;;20.77;46.17;100794.06;4958308;28;7093;-74
2022/08/28 03:12:45;;;;;;;;;;;;;;;20.77;46.32;100788.88;4975909;28;6868;-74
2022/08/28 03:15:11;;;;;;;;;;;;;;;20.77;46.61;100786.25;4974131;28;6876;-74
2022/08/28 03:17:37;;;;;;;;;;;;;;;20.76;46.37;100792.28;4973683;28;6844;-74
2022/08/28 03:20:09;;;;;;;;;;;;;;;20.74;46.62;100787.09;4977723;28;6859;-75
2022/08/28 03:25:21;;;;;;;;;;;;;;;20.71;46.67;100786.19;4958775;28;6800;-74
2022/08/28 03:27:48;;;;;;;;;;;;;;;20.70;46.47;100787.03;4976650;28;6804;-74
2022/08/28 03:30:14;;;;;;;;;;;;;;;20.67;46.61;100782.66;4972947;28;6947;-75
2022/08/28 03:32:40;;;;;;;;;;;;;;;20.67;46.58;100782.66;4971285;28;6796;-74
2022/08/28 03:35:06;;;;;;;;;;;;;;;20.63;47.09;100788.69;4977822;28;6780;-75
2022/08/28 03:37:32;;;;;;;;;;;;;;;20.62;46.57;100787.81;4975927;28;7433;-75
2022/08/28 03:39:58;;;;;;;;;;;;;;;20.60;46.92;100799.03;4972032;28;6784;-75
2022/08/28 03:42:24;;;;;;;;;;;;;;;20.56;47.28;100785.13;4958296;28;7002;-74
2022/08/28 03:44:50;;;;;;;;;;;;;;;20.54;47.10;100789.44;4970636;28;6987;-75
2022/08/28 03:47:18;;;;;;;;;;;;;;;20.50;46.83;100793.72;4959014;28;6980;-75
2022/08/28 03:49:46;;;;;;;;;;;;;;;20.47;47.23;100782.38;4970165;28;6856;-75
2022/08/28 03:52:12;;;;;;;;;;;;;;;20.45;46.85;100795.41;4963786;28;6983;-75
2022/08/28 03:54:37;;;;;;;;;;;;;;;20.42;47.17;100791.88;4972262;28;6949;-75
2022/08/28 03:57:03;;;;;;;;;;;;;;;20.40;47.12;100794.44;4977279;28;6998;-75
2022/08/28 03:59:29;;;;;;;;;;;;;;;20.37;47.56;100799.63;4978705;28;7002;-75
2022/08/28 04:01:54;;;;;;;;;;;;;;;20.34;47.76;100803.06;4968958;28;7008;-75
2022/08/28 04:04:20;;;;;;;;;;;;;;;20.32;47.28;100804.75;4959253;28;9719;-75
2022/08/28 04:06:46;;;;;;;;;;;;;;;20.33;47.50;100808.22;4980293;28;7027;-74
2022/08/28 04:09:11;;;;;;;;;;;;;;;20.31;48.11;100803.03;4975147;28;6934;-74
2022/08/28 04:11:42;;;;;;;;;;;;;;;20.31;48.06;100808.22;4982528;28;7101;-75
2022/08/28 04:14:10;;;;;;;;;;;;;;;20.32;47.52;100814.28;4977867;28;6969;-75
2022/08/28 04:16:36;;;;;;;;;;;;;;;20.29;47.53;100809.94;4979466;28;8042;-74
2022/08/28 04:19:02;;;;;;;;;;;;;;;20.29;48.16;100817.75;4979063;28;6803;-74
2022/08/28 04:21:27;;;;;;;;;;;;;;;20.28;48.04;100810.78;4970457;28;6979;-74
2022/08/28 04:23:54;;;;;;;;;;;;;;;20.26;48.39;100815.97;4958507;28;6949;-74
2022/08/28 04:26:24;;;;;;;;;;;;;;;20.27;48.16;100819.44;4982211;28;6800;-74
2022/08/28 04:28:51;;;;;;;;;;;;;;;20.27;48.14;100827.22;4962057;28;6812;-74
2022/08/28 04:31:18;;;;;;;;;;;;;;;20.28;48.66;100829.00;4976641;28;6788;-73
2022/08/28 04:33:44;;;;;;;;;;;;;;;20.29;48.14;100828.16;4978466;28;7231;-73
2022/08/28 04:36:16;;;;;;;;;;;;;;;20.29;47.89;100832.47;4982172;28;6772;-73
2022/08/28 04:38:42;;;;;;;;;;;;;;;20.28;47.89;100831.63;4979835;28;6796;-74
2022/08/28 04:41:12;;;;;;;;;;;;;;;20.26;48.44;100831.59;4968210;28;7184;-73
2022/08/28 04:43:37;;;;;;;;;;;;;;;20.25;48.33;100835.03;4969492;28;6792;-73
2022/08/28 04:46:07;;;;;;;;;;;;;;;20.24;48.01;100840.22;4962096;28;6954;-74
2022/08/28 04:48:34;;;;;;;;;;;;;;;20.23;48.46;100841.97;4980406;28;6883;-73
2022/08/28 04:51:02;;;;;;;;;;;;;;;20.22;48.40;100847.13;4979023;28;6977;-74
2022/08/28 04:53:28;;;;;;;;;;;;;;;20.20;48.04;100841.03;4978810;28;6800;-74
2022/08/28 04:55:57;;;;;;;;;;;;;;;20.19;48.39;100845.34;4967260;28;8295;-73
2022/08/28 04:58:26;;;;;;;;;;;;;;;20.18;48.58;100841.00;4977381;28;6812;-73
2022/08/28 05:00:53;;;;;;;;;;;;;;;20.17;48.46;100835.75;4974874;28;6808;-74
2022/08/28 05:03:20;;;;;;;;;;;;;;;20.16;48.46;100839.22;4959425;28;6784;-74
2022/08/28 05:05:52;;;;;;;;;;;;;;;20.14;48.71;100840.94;4976220;28;6788;-74
2022/08/28 05:08:23;;;;;;;;;;;;;;;20.14;48.81;100838.31;4974112;28;7627;-75
2022/08/28 05:10:49;;;;;;;;;;;;;;;20.10;48.78;100847.81;4979916;28;7359;-75
2022/08/28 05:13:17;;;;;;;;;;;;;;;20.09;48.68;100849.56;4974165;28;6860;-74
2022/08/28 05:15:46;;;;;;;;;;;;;;;20.08;48.99;100858.16;4956329;28;7120;-74
2022/08/28 05:18:15;;;;;;;;;;;;;;;20.08;48.50;100865.97;4948938;28;8386;-74
2022/08/28 05:20:45;;;;;;;;;;;;;;;20.07;48.83;100859.03;4956547;28;9223;-74
2022/08/28 05:23:12;;;;;;;;;;;;;;;20.08;48.65;100857.31;4956675;28;6788;-75
2022/08/28 05:25:43;;;;;;;;;;;;;;;20.09;48.67;100862.56;4976631;28;7244;-74
2022/08/28 05:28:11;;;;;;;;;;;;;;;20.09;48.91;100870.38;4950903;28;6824;-74
2022/08/28 05:30:39;;;;;;;;;;;;;;;20.10;48.86;100861.69;4947371;28;8026;-74
2022/08/28 05:33:07;;;;;;;;;;;;;;;20.12;48.69;100859.09;4962966;28;6884;-74
2022/08/28 05:35:37;;;;;;;;;;;;;;;20.14;49.02;100873.03;4972335;28;6776;-74
2022/08/28 05:38:03;;;;;;;;;;;;;;;20.15;49.24;100863.50;4978213;28;6979;-74
2022/08/28 05:40:29;;;;;;;;;;;;;;;20.15;49.18;100866.09;4977645;28;6812;-74
2022/08/28 05:42:55;;;;;;;;;;;;;;;20.18;48.97;100873.94;4972184;28;7018;-74
2022/08/28 05:45:21;;;;;;;;;;;;;;;20.19;49.20;100870.50;4975781;28;7161;-74
2022/08/28 05:47:47;;;;;;;;;;;;;;;20.22;48.87;100880.97;4961768;28;7083;-75
2022/08/28 05:50:13;;;;;;;;;;;;;;;20.24;49.33;100881.84;4956079;28;7015;-74
2022/08/28 05:52:41;;;;;;;;;;;;;;;20.28;49.23;100890.59;4967436;28;6764;-74
2022/08/28 05:55:09;;;;;;;;;;;;;;;20.29;48.99;100877.59;4968722;28;6971;-74
2022/08/28 05:57:35;;;;;;;;;;;;;;;20.33;49.00;100875.91;4979336;28;6943;-74
2022/08/28 06:00:03;;;;;;;;;;;;;;;20.35;48.91;100872.47;4956422;28;7137;-74
2022/08/28 06:02:28;;;;;;;;;;;;;;;20.39;48.69;100876.88;4955806;28;7047;-74
2022/08/28 06:04:54;;;;;;;;;;;;;;;20.43;49.41;100879.53;4980321;28;7375;-74
2022/08/28 06:07:19;;;;;;;;;;;;;;;20.46;49.06;100882.16;4981066;28;6776;-74
2022/08/28 06:09:45;;;;;;;;;;;;;;;20.49;48.89;100880.50;4952371;28;6946;-73
2022/08/28 06:12:11;;;;;;;;;;;;;;;20.52;49.03;100885.75;4970062;28;6864;-75
2022/08/28 06:14:37;;;;;;;;;;;;;;;20.52;49.12;100890.97;4958819;28;7573;-74
2022/08/28 06:17:04;;;;;;;;;;;;;;;20.57;48.90;100890.16;4971129;28;6812;-75
2022/08/28 06:19:33;;;;;;;;;;;;;;;20.59;49.28;100886.72;4956399;28;8507;-74
2022/08/28 06:22:04;;;;;;;;;;;;;;;20.64;49.09;100890.25;4959861;28;6820;-75
2022/08/28 06:24:31;;;;;;;;;;;;;;;20.70;48.84;100899.00;4957125;28;8710;-75
2022/08/28 06:26:59;;;;;;;;;;;;;;;20.75;48.92;100895.63;4950142;28;7332;-75
2022/08/28 06:29:26;;;;;;;;;;;;;;;20.83;48.68;100903.56;4955123;28;6880;-75
2022/08/28 06:31:59;;;;;;;;;;;;;;;20.90;48.67;100907.13;4943140;28;7331;-75
2022/08/28 06:34:26;;;;;;;;;;;;;;;20.98;48.56;100899.44;4976906;28;6801;-76
2022/08/28 06:36:53;;;;;;;;;;;;;;;21.03;48.35;100903.84;4977735;28;7050;-75
2022/08/28 06:39:20;;;;;;;;;;;;;;;21.08;48.71;100912.56;4977140;28;6819;-75
2022/08/28 06:41:45;;;;;;;;;;;;;;;21.13;48.07;100909.16;4966100;28;6815;-76
2022/08/28 06:44:18;;;;;;;;;;;;;;;21.18;48.11;100907.47;4972264;28;6775;-75
2022/08/28 06:46:46;;;;;;;;;;;;;;;21.21;47.97;100913.59;4956780;28;7306;-76
2022/08/28 06:49:13;;;;;;;;;;;;;;;21.28;47.85;100909.34;4952815;28;7081;-76
2022/08/28 06:51:39;;;;;;;;;;;;;;;21.35;47.94;100916.38;4972018;28;6788;-76
2022/08/28 06:54:05;;;;;;;;;;;;;;;21.43;47.90;100918.22;4971059;28;6804;-75
2022/08/28 06:56:31;;;;;;;;;;;;;;;21.50;47.85;100913.06;4976553;28;6964;-75
2022/08/28 06:58:59;;;;;;;;;;;;;;;21.59;47.70;100904.47;4977707;28;6991;-76
2022/08/28 07:01:29;;;;;;;;;;;;;;;21.67;47.79;100921.91;4981108;28;6799;-74
2022/08/28 07:04:05;;;;;;;;;;;;;;;21.72;47.49;100922.88;4976237;28;7196;-75
2022/08/28 07:06:36;;;;;;;;;;;;;;;21.76;47.37;100920.34;4981151;28;7046;-74
2022/08/28 07:09:06;;;;;;;;;;;;;;;21.82;47.44;100922.13;4973358;28;6984;-74
2022/08/28 07:11:34;;;;;;;;;;;;;;;21.89;47.19;100917.84;4963323;28;7068;-75
2022/08/28 07:14:01;;;;;;;;;;;;;;;21.95;47.04;100917.91;4982380;28;6947;-75
2022/08/28 07:16:31;;;;;;;;;;;;;;;22.00;46.83;100929.25;4978548;28;7028;-75
2022/08/28 07:18:58;;;;;;;;;;;;;;;22.08;46.96;100926.72;4961275;28;6812;-75
2022/08/28 07:21:25;;;;;;;;;;;;;;;22.12;46.74;100930.22;4968075;28;6996;-75
2022/08/28 07:23:51;;;;;;;;;;;;;;;22.20;46.59;100925.91;4941410;28;7209;-75
2022/08/28 07:26:22;;;;;;;;;;;;;;;22.32;46.92;100939.09;4976508;28;6974;-74
2022/08/28 07:28:49;;;;;;;;;;;;;;;22.43;46.39;100935.69;4975924;28;7258;-74
2022/08/28 07:31:21;;;;;;;;;;;;;;;22.54;46.38;100938.38;4965630;28;7343;-75
2022/08/28 07:33:47;;;;;;;;;;;;;;;22.61;45.98;100935.84;4977246;28;6796;-74
2022/08/28 07:36:19;;;;;;;;;;;;;;;22.67;45.56;100939.34;4974347;28;6780;-75
2022/08/28 07:38:46;;;;;;;;;;;;;;;22.71;45.79;100935.91;4983109;28;7238;-74
2022/08/28 07:41:19;;;;;;;;;;;;;;;22.77;45.51;100942.91;4978033;28;7290;-74
2022/08/28 07:46:30;;;;;;;;;;;;;;;22.84;45.15;100947.28;4978310;28;6796;-75
2022/08/28 07:48:57;;;;;;;;;;;;;;;22.85;44.99;100934.25;4962508;28;6991;-74
2022/08/28 07:51:25;;;;;;;;;;;;;;;22.88;44.68;100939.47;4972101;28;7717;-75
2022/08/28 07:53:52;;;;;;;;;;;;;;;22.92;44.83;100921.22;4968348;28;7110;-75
2022/08/28 07:56:19;;;;;;;;;;;;;;;22.96;44.51;100925.59;4976656;28;6829;-75
2022/08/28 07:58:45;;;;;;;;;;;;;;;22.97;44.49;100933.44;4974239;28;6904;-74
2022/08/28 08:01:11;;;;;;;;;;;;;;;22.97;44.43;100927.31;4975312;28;7023;-73
2022/08/28 08:03:37;;;;;;;;;;;;;;;22.97;44.14;100938.66;4980321;28;6780;-72
2022/08/28 08:06:05;;;;;;;;;;;;;;;22.97;44.44;100940.38;4975091;28;6776;-75
2022/08/28 08:08:32;;;;;;;;;;;;;;;22.97;44.35;100941.28;4978123;28;6796;-73
2022/08/28 08:11:00;;;;;;;;;;;;;;;22.98;44.37;100942.13;4971134;28;8489;-75
2022/08/28 08:13:28;;;;;;;;;;;;;;;22.98;44.20;100943.03;4972581;28;6980;-73
2022/08/28 08:16:04;;;;;;;;;;;;;;;22.94;43.63;100943.88;4963951;28;7508;-75
2022/08/28 08:18:30;;;;;;;;;;;;;;;22.87;43.76;100942.09;4976301;28;7157;-74
2022/08/28 08:20:56;;;;;;;;;;;;;;;22.84;43.56;100950.78;4960818;28;6860;-75
2022/08/28 08:23:21;;;;;;;;;;;;;;;22.81;43.50;100950.78;4979041;28;6796;-76
2022/08/28 08:26:02;;;;;;;;;;;;;;;22.75;43.71;100958.56;4979303;28;6863;-75
2022/08/28 08:28:29;;;;;;;;;;;;;;;22.73;43.66;100970.75;4968639;28;6979;-76
2022/08/28 08:31:07;;;;;;;;;;;;;;;22.68;43.83;100972.44;4979441;28;6992;-73
2022/08/28 08:33:37;;;;;;;;;;;;;;;22.66;43.66;100963.72;4978281;28;9620;-77
2022/08/28 08:36:05;;;;;;;;;;;;;;;22.64;43.79;100975.91;4974462;28;7219;-74
2022/08/28 08:38:34;;;;;;;;;;;;;;;22.67;44.13;100968.09;4965427;28;6986;-74
2022/08/28 08:41:05;;;;;;;;;;;;;;;22.71;43.92;100973.34;4955789;28;8765;-73
2022/08/28 08:44:00;;;;;;;;;;;;;;;22.77;44.06;100975.13;4962627;28;8053;-72
2022/08/28 08:46:47;;;;;;;;;;;;;;;22.84;44.05;100974.31;4983323;28;7285;-74
2022/08/28 08:49:20;;;;;;;;;;;;;;;22.88;43.92;100976.06;4984197;28;7917;-74
2022/08/28 08:51:57;;;;;;;;;;;;;;;22.89;43.85;100969.09;4980190;28;6796;-73
2022/08/28 08:54:22;;;;;;;;;;;;;;;22.93;43.83;100977.84;4977487;28;7876;-74
2022/08/28 08:56:50;;;;;;;;;;;;;;;22.94;43.15;100975.25;4980457;28;6772;-74
2022/08/28 08:59:21;;;;;;;;;;;;;;;22.94;43.31;100980.47;4985219;28;7057;-74
2022/08/28 09:02:20;;;;;;;;;;;;;;;22.97;43.78;100975.25;4981611;28;7002;-74
2022/08/28 09:04:54;;;;;;;;;;;;;;;22.98;43.58;100978.72;4982702;28;6876;-74
2022/08/28 09:07:46;;;;;;;;;;;;;;;23.02;43.56;100980.50;4970578;28;6884;-73
2022/08/28 09:10:13;;;;;;;;;;;;;;;23.06;43.23;100971.81;4977531;28;6991;-73
2022/08/28 09:12:58;;;;;;;;;;;;;;;23.15;43.52;100974.47;4977300;28;7295;-74
2022/08/28 09:15:37;;;;;;;;;;;;;;;23.26;43.24;100974.53;4981374;28;7876;-74
2022/08/28 09:18:18;;;;;;;;;;;;;;;23.32;43.54;100965.88;4977936;28;6807;-74
2022/08/28 09:20:51;;;;;;;;;;;;;;;23.42;43.42;100965.03;4984561;28;7071;-74
2022/08/28 09:23:16;;;;;;;;;;;;;;;23.57;43.23;100977.28;4979712;28;6888;-74
2022/08/28 09:26:02;;;;;;;;;;;;;;;23.71;43.07;100968.63;4980638;28;6848;-74
2022/08/28 09:28:43;;;;;;;;;;;;;;;23.83;42.08;100966.03;4965748;28;7027;-72
2022/08/28 09:31:14;;;;;;;;;;;;;;;23.95;42.73;100961.69;4968339;28;6841;-74
2022/08/28 09:33:48;;;;;;;;;;;;;;;24.12;41.70;100964.34;4974957;28;6811;-73
2022/08/28 09:36:37;;;;;;;;;;;;;;;24.46;41.52;100963.47;4969672;28;6788;-73
2022/08/28 09:39:21;;;;;;;;;;;;;;;24.81;40.92;100966.06;4975397;28;6994;-74
2022/08/28 09:45:21;;;;;;;;;;;;;;;26.16;38.85;100967.16;4985746;28;6960;-74
2022/08/28 09:47:58;;;;;;;;;;;;;;;26.74;38.09;100959.66;4981965;28;6875;-73
2022/08/28 09:50:34;;;;;;;;;;;;;;;27.51;37.36;100953.53;4980648;28;6962;-73
2022/08/28 09:53:21;;;;;;;;;;;;;;;28.33;36.42;100962.84;4975281;28;6819;-73
2022/08/28 09:56:21;;;;;;;;;;;;;;;28.91;35.03;100952.13;4985167;28;6804;-74
2022/08/28 09:58:56;;;;;;;;;;;;;;;29.57;33.83;100958.72;4964171;28;7105;-72
2022/08/28 10:01:40;;;;;;;;;;;;;;;30.12;32.89;100948.63;4962030;28;7039;-74
2022/08/28 10:04:27;;;;;;;;;;;;;;;30.60;32.98;100963.22;4965778;28;7255;-74
2022/08/28 10:07:07;;;;;;;;;;;;;;;31.01;31.92;100951.56;4979685;28;7211;-75
2022/08/28 10:09:36;;;;;;;;;;;;;;;31.21;31.33;100942.19;4980149;28;6942;-74
2022/08/28 10:12:04;;;;;;;;;;;;;;;31.38;30.50;100945.19;4960760;28;6991;-73
2022/08/28 10:15:02;;;;;;;;;;;;;;;31.65;30.21;100942.59;4983702;28;8344;-76
2022/08/28 10:18:03;;;;;;;;;;;;;;;32.16;29.30;100934.81;4963189;28;7295;-74
2022/08/28 10:21:12;;;;;;;;;;;;;;;32.40;28.92;100940.19;4979617;28;7222;-74
2022/08/28 10:24:19;;;;;;;;;;;;;;;32.68;28.57;100944.50;4979957;28;7372;-73
2022/08/28 10:27:24;;;;;;;;;;;;;;;32.96;28.27;100946.16;4957925;28;6812;-76
2022/08/28 10:30:06;;;;;;;;;;;;;;;33.11;27.91;100934.94;4984928;28;7146;-73
2022/08/28 10:33:23;;;;;;;;;;;;;;;33.21;27.59;100942.56;4979299;28;6824;-74
2022/08/28 10:36:20;;;;;;;;;;;;;;;33.29;27.40;100943.13;4982570;28;6986;-73
2022/08/28 10:39:19;;;;;;;;;;;;;;;33.47;26.67;100948.69;4982924;28;6828;-74
2022/08/28 10:42:00;;;;;;;;;;;;;;;33.56;26.47;100942.13;4982564;28;7032;-74
2022/08/28 10:44:37;;;;;;;;;;;;;;;33.68;26.71;100940.75;4978868;28;6925;-74
2022/08/28 10:47:06;;;;;;;;;;;;;;;34.02;26.66;100934.94;4978035;28;7473;-74
2022/08/28 10:49:44;;;;;;;;;;;;;;;34.44;26.09;100945.59;4962478;28;7345;-74
2022/08/28 10:52:32;;;;;;;;;;;;;;;34.57;25.38;100943.25;4980024;28;6942;-74
2022/08/28 10:55:20;;;;;;;;;;;;;;;34.82;24.53;100939.50;4975843;28;7217;-74
2022/08/28 10:58:06;;;;;;;;;;;;;;;34.74;24.36;100939.88;4949555;28;7010;-75
2022/08/28 11:00:34;;;;;;;;;;;;;;;34.52;24.84;100947.91;4957252;28;7021;-74
2022/08/28 11:03:16;;;;;;;;;;;;;;;34.42;25.11;100945.66;4979722;28;6953;-74
2022/08/28 11:06:00;;;;;;;;;;;;;;;34.39;24.69;100944.91;4962481;28;7176;-73
2022/08/28 11:08:35;;;;;;;;;;;;;;;34.39;24.94;100940.47;4979397;28;6792;-73
2022/08/28 11:11:10;;;;;;;;;;;;;;;34.46;24.14;100949.91;4982032;28;7006;-74
2022/08/28 11:13:44;;;;;;;;;;;;;;;34.43;23.67;100950.03;4977959;28;7471;-73
2022/08/28 11:16:28;;;;;;;;;;;;;;;34.18;23.67;100945.78;4980992;28;7241;-74
2022/08/28 11:19:18;;;;;;;;;;;;;;;34.01;23.80;100943.00;4982172;28;6784;-75
2022/08/28 11:22:06;;;;;;;;;;;;;;;33.94;24.04;100937.91;4978973;28;7405;-74
2022/08/28 11:24:38;;;;;;;;;;;;;;;33.86;23.94;100947.97;4976702;28;7238;-74
2022/08/28 11:27:33;;;;;;;;;;;;;;;33.88;24.49;100938.16;4983947;28;7205;-75
2022/08/28 11:30:09;;;;;;;;;;;;;;;34.27;23.96;100939.22;4983386;28;6900;-73
2022/08/28 11:32:50;;;;;;;;;;;;;;;34.64;23.75;100936.75;4977717;28;6823;-74
2022/08/28 11:35:42;;;;;;;;;;;;;;;34.91;23.29;100931.09;4978037;28;7298;-75
2022/08/28 11:38:09;;;;;;;;;;;;;;;35.08;23.26;100938.31;4981811;28;6804;-75
2022/08/28 11:40:35;;;;;;;;;;;;;;;35.16;23.24;100932.66;4979299;28;6964;-74
2022/08/28 11:43:13;;;;;;;;;;;;;;;35.25;22.42;100949.97;4980661;28;6848;-75
2022/08/28 11:45:41;;;;;;;;;;;;;;;35.03;22.28;100942.97;4976501;28;6974;-75
2022/08/28 11:48:32;;;;;;;;;;;;;;;34.81;22.24;100946.63;4980953;28;6776;-74
2022/08/28 11:51:03;;;;;;;;;;;;;;;34.75;21.90;100939.78;4977479;28;6781;-74
2022/08/28 11:53:58;;;;;;;;;;;;;;;34.64;22.11;100943.88;4964536;28;7007;-74
2022/08/28 11:56:48;;;;;;;;;;;;;;;34.41;22.07;100951.03;4978414;28;7216;-72
2022/08/28 11:59:34;;;;;;;;;;;;;;;34.38;22.25;100948.53;4981673;28;7205;-75
2022/08/28 12:02:41;;;;;;;;;;;;;;;34.54;22.32;100946.06;4980247;28;7177;-73
2022/08/28 12:05:29;;;;;;;;;;;;;;;34.56;22.36;100947.75;4980776;28;6826;-74
2022/08/28 12:07:56;;;;;;;;;;;;;;;34.49;22.76;100936.47;4982912;28;6848;-75
2022/08/28 12:10:23;;;;;;;;;;;;;;;34.48;22.75;100936.53;4962782;28;6963;-74
2022/08/28 12:13:06;;;;;;;;;;;;;;;34.42;22.53;100940.34;4981832;28;6988;-75
2022/08/28 12:15:32;;;;;;;;;;;;;;;34.43;22.41;100939.41;4960996;28;6954;-74
2022/08/28 12:18:10;;;;;;;;;;;;;;;34.59;22.55;100941.44;4961979;28;6993;-74
2022/08/28 12:21:05;;;;;;;;;;;;;;;34.58;22.67;100943.22;4982862;28;6975;-75
2022/08/28 12:23:55;;;;;;;;;;;;;;;34.66;22.66;100952.66;4976644;28;6824;-74
2022/08/28 12:26:34;;;;;;;;;;;;;;;34.71;22.89;100935.53;4977150;28;6947;-74
2022/08/28 12:29:19;;;;;;;;;;;;;;;34.94;22.31;100922.97;4978720;28;6864;-74
2022/08/28 12:32:44;;;;;;;;;;;;;;;35.24;22.40;100918.97;4973686;28;6856;-73
2022/08/28 12:35:29;;;;;;;;;;;;;;;35.12;21.99;100934.59;4977942;28;6896;-73
2022/08/28 12:37:57;;;;;;;;;;;;;;;34.95;22.22;100918.50;4979444;28;6800;-73
2022/08/28 12:40:49;;;;;;;;;;;;;;;34.88;21.90;100923.25;4985014;28;6803;-73
2022/08/28 12:43:35;;;;;;;;;;;;;;;34.78;22.65;100921.97;4979882;28;6878;-74
2022/08/28 12:46:10;;;;;;;;;;;;;;;34.70;22.05;100919.63;4977852;28;6788;-73
2022/08/28 12:48:59;;;;;;;;;;;;;;;34.53;22.44;100917.75;4983748;28;6800;-73
2022/08/28 12:51:32;;;;;;;;;;;;;;;34.58;22.04;100910.44;4983804;28;6800;-72
2022/08/28 12:54:03;;;;;;;;;;;;;;;34.73;21.91;100915.03;4983160;28;7928;-73
2022/08/28 12:56:34;;;;;;;;;;;;;;;34.90;22.16;100913.41;4985800;28;6796;-75
2022/08/28 12:59:36;;;;;;;;;;;;;;;34.80;21.49;100914.75;4969584;28;6796;-74
2022/08/28 13:02:26;;;;;;;;;;;;;;;34.51;21.80;100930.22;4980795;28;6817;-74
2022/08/28 13:05:04;;;;;;;;;;;;;;;34.29;21.51;100926.72;4980567;28;6977;-73
2022/08/28 13:07:48;;;;;;;;;;;;;;;34.17;22.30;100905.97;4966560;28;7316;-73
2022/08/28 13:10:46;;;;;;;;;;;;;;;34.16;22.08;100906.91;4984056;28;6792;-73
2022/08/28 13:13:32;;;;;;;;;;;;;;;34.26;22.16;100915.34;4978380;28;7666;-73
2022/08/28 13:16:12;;;;;;;;;;;;;;;34.50;22.02;100902.75;4977748;28;6808;-74
2022/08/28 13:18:51;;;;;;;;;;;;;;;34.56;22.05;100901.63;4977169;28;6864;-74
2022/08/28 13:21:17;;;;;;;;;;;;;;;34.44;21.67;100895.91;4980164;28;7520;-75
2022/08/28 13:23:52;;;;;;;;;;;;;;;34.03;21.54;100912.72;4983268;28;6803;-74
2022/08/28 13:26:32;;;;;;;;;;;;;;;33.68;22.08;100892.94;4983819;28;6977;-73
2022/08/28 13:29:03;;;;;;;;;;;;;;;33.19;22.31;100904.59;4964801;28;7273;-76